sensor_id;sensor_type;location;lat;lon;timestamp;P1;durP1;ratioP1;P2;durP2;ratioP2
20519;SDS011;53432;51.952;14.740;2022-08-25T00:01:53;17.85;;;8.88;;
20519;SDS011;53432;51.952;14.740;2022-08-25T00:04:23;13.20;;;8.93;;
20519;SDS011;53432;51.952;14.740;2022-08-25T00:06:51;17.17;;;9.13;;
20519;SDS011;53432;51.952;14.740;2022-08-25T00:09:21;17.55;;;9.30;;
20519;SDS011;53432;51.952;14.740;2022-08-25T00:11:50;17.02;;;9.63;;
20519;SDS011;53432;51.952;14.740;2022-08-25T00:14:20;16.50;;;9.18;;
20519;SDS011;53432;51.952;14.740;2022-08-25T00:16:49;13.80;;;8.80;;
20519;SDS011;53432;51.952;14.740;2022-08-25T00:19:19;10.95;;;8.55;;
20519;SDS011;53432;51.952;14.740;2022-08-25T00:21:49;16.15;;;8.68;;
20519;SDS011;53432;51.952;14.740;2022-08-25T00:24:17;13.32;;;9.20;;
20519;SDS011;53432;51.952;14.740;2022-08-25T00:26:47;12.18;;;8.18;;
20519;SDS011;53432;51.952;14.740;2022-08-25T00:29:21;15.82;;;8.85;;
20519;SDS011;53432;51.952;14.740;2022-08-25T00:31:50;10.88;;;8.35;;
20519;SDS011;53432;51.952;14.740;2022-08-25T00:34:21;13.82;;;9.50;;
20519;SDS011;53432;51.952;14.740;2022-08-25T00:36:52;13.27;;;7.40;;
20519;SDS011;53432;51.952;14.740;2022-08-25T00:39:20;13.73;;;9.10;;
20519;SDS011;53432;51.952;14.740;2022-08-25T00:41:49;17.38;;;8.40;;
20519;SDS011;53432;51.952;14.740;2022-08-25T00:44:18;13.02;;;9.18;;
20519;SDS011;53432;51.952;14.740;2022-08-25T00:46:48;11.98;;;7.65;;
20519;SDS011;53432;51.952;14.740;2022-08-25T00:49:19;14.57;;;9.10;;
20519;SDS011;53432;51.952;14.740;2022-08-25T00:51:52;14.70;;;9.07;;
20519;SDS011;53432;51.952;14.740;2022-08-25T00:54:24;12.40;;;8.13;;
20519;SDS011;53432;51.952;14.740;2022-08-25T00:56:54;11.35;;;8.43;;
20519;SDS011;53432;51.952;14.740;2022-08-25T00:59:23;14.45;;;8.98;;
20519;SDS011;53432;51.952;14.740;2022-08-25T01:01:52;13.32;;;8.90;;
20519;SDS011;53432;51.952;14.740;2022-08-25T01:04:21;14.73;;;8.77;;
20519;SDS011;53432;51.952;14.740;2022-08-25T01:06:50;15.73;;;8.20;;
20519;SDS011;53432;51.952;14.740;2022-08-25T01:09:18;20.73;;;9.23;;
20519;SDS011;53432;51.952;14.740;2022-08-25T01:11:46;11.27;;;7.90;;
20519;SDS011;53432;51.952;14.740;2022-08-25T01:14:15;16.02;;;8.50;;
20519;SDS011;53432;51.952;14.740;2022-08-25T01:16:44;20.60;;;8.48;;
20519;SDS011;53432;51.952;14.740;2022-08-25T01:19:13;14.98;;;9.43;;
20519;SDS011;53432;51.952;14.740;2022-08-25T01:21:43;13.93;;;7.40;;
20519;SDS011;53432;51.952;14.740;2022-08-25T01:24:15;13.18;;;8.45;;
20519;SDS011;53432;51.952;14.740;2022-08-25T01:26:50;17.52;;;7.90;;
20519;SDS011;53432;51.952;14.740;2022-08-25T01:29:17;10.25;;;7.97;;
20519;SDS011;53432;51.952;14.740;2022-08-25T01:31:51;11.32;;;7.97;;
20519;SDS011;53432;51.952;14.740;2022-08-25T01:34:22;11.68;;;8.85;;
20519;SDS011;53432;51.952;14.740;2022-08-25T01:36:51;12.38;;;8.05;;
20519;SDS011;53432;51.952;14.740;2022-08-25T01:39:19;16.35;;;8.77;;
20519;SDS011;53432;51.952;14.740;2022-08-25T01:41:49;15.65;;;8.82;;
20519;SDS011;53432;51.952;14.740;2022-08-25T01:44:24;16.23;;;9.10;;
20519;SDS011;53432;51.952;14.740;2022-08-25T01:46:52;13.50;;;9.15;;
20519;SDS011;53432;51.952;14.740;2022-08-25T01:49:20;16.45;;;8.80;;
20519;SDS011;53432;51.952;14.740;2022-08-25T01:51:48;21.65;;;9.35;;
20519;SDS011;53432;51.952;14.740;2022-08-25T01:54:22;15.48;;;8.93;;
20519;SDS011;53432;51.952;14.740;2022-08-25T01:56:49;17.67;;;8.90;;
20519;SDS011;53432;51.952;14.740;2022-08-25T01:59:17;16.73;;;9.02;;
20519;SDS011;53432;51.952;14.740;2022-08-25T02:01:45;12.38;;;8.95;;
20519;SDS011;53432;51.952;14.740;2022-08-25T02:04:13;12.95;;;8.20;;
20519;SDS011;53432;51.952;14.740;2022-08-25T02:06:40;15.05;;;9.30;;
20519;SDS011;53432;51.952;14.740;2022-08-25T02:09:09;18.55;;;9.52;;
20519;SDS011;53432;51.952;14.740;2022-08-25T02:11:40;17.20;;;9.02;;
20519;SDS011;53432;51.952;14.740;2022-08-25T02:14:09;14.75;;;8.23;;
20519;SDS011;53432;51.952;14.740;2022-08-25T02:16:38;13.63;;;8.60;;
20519;SDS011;53432;51.952;14.740;2022-08-25T02:19:07;12.10;;;8.50;;
20519;SDS011;53432;51.952;14.740;2022-08-25T02:21:36;16.00;;;8.65;;
20519;SDS011;53432;51.952;14.740;2022-08-25T02:24:04;15.30;;;9.63;;
20519;SDS011;53432;51.952;14.740;2022-08-25T02:26:34;15.80;;;8.45;;
20519;SDS011;53432;51.952;14.740;2022-08-25T02:29:02;12.63;;;8.35;;
20519;SDS011;53432;51.952;14.740;2022-08-25T02:31:31;19.15;;;8.95;;
20519;SDS011;53432;51.952;14.740;2022-08-25T02:33:59;16.02;;;8.27;;
20519;SDS011;53432;51.952;14.740;2022-08-25T02:36:26;19.08;;;10.63;;
20519;SDS011;53432;51.952;14.740;2022-08-25T02:38:55;16.48;;;8.13;;
20519;SDS011;53432;51.952;14.740;2022-08-25T02:41:23;17.48;;;9.75;;
20519;SDS011;53432;51.952;14.740;2022-08-25T02:43:53;12.38;;;9.02;;
20519;SDS011;53432;51.952;14.740;2022-08-25T02:46:20;11.93;;;8.85;;
20519;SDS011;53432;51.952;14.740;2022-08-25T02:48:49;13.60;;;8.95;;
20519;SDS011;53432;51.952;14.740;2022-08-25T02:51:18;13.68;;;9.63;;
20519;SDS011;53432;51.952;14.740;2022-08-25T02:53:47;18.23;;;9.73;;
20519;SDS011;53432;51.952;14.740;2022-08-25T02:56:15;14.70;;;10.15;;
20519;SDS011;53432;51.952;14.740;2022-08-25T02:58:43;14.07;;;9.73;;
20519;SDS011;53432;51.952;14.740;2022-08-25T03:01:13;17.20;;;9.13;;
20519;SDS011;53432;51.952;14.740;2022-08-25T03:03:41;11.55;;;8.63;;
20519;SDS011;53432;51.952;14.740;2022-08-25T03:06:10;14.60;;;8.77;;
20519;SDS011;53432;51.952;14.740;2022-08-25T03:08:40;17.10;;;8.63;;
20519;SDS011;53432;51.952;14.740;2022-08-25T03:11:08;16.42;;;9.52;;
20519;SDS011;53432;51.952;14.740;2022-08-25T03:13:36;14.43;;;8.75;;
20519;SDS011;53432;51.952;14.740;2022-08-25T03:16:05;11.02;;;8.65;;
20519;SDS011;53432;51.952;14.740;2022-08-25T03:18:34;13.35;;;8.75;;
20519;SDS011;53432;51.952;14.740;2022-08-25T03:21:02;15.15;;;9.15;;
20519;SDS011;53432;51.952;14.740;2022-08-25T03:23:30;13.15;;;9.07;;
20519;SDS011;53432;51.952;14.740;2022-08-25T03:25:57;15.65;;;9.05;;
20519;SDS011;53432;51.952;14.740;2022-08-25T03:28:42;14.93;;;8.68;;
20519;SDS011;53432;51.952;14.740;2022-08-25T03:31:10;12.65;;;8.85;;
20519;SDS011;53432;51.952;14.740;2022-08-25T03:33:39;12.50;;;9.40;;
20519;SDS011;53432;51.952;14.740;2022-08-25T03:36:07;16.92;;;8.52;;
20519;SDS011;53432;51.952;14.740;2022-08-25T03:38:36;13.07;;;9.18;;
20519;SDS011;53432;51.952;14.740;2022-08-25T03:41:11;14.68;;;8.63;;
20519;SDS011;53432;51.952;14.740;2022-08-25T03:43:40;16.85;;;9.55;;
20519;SDS011;53432;51.952;14.740;2022-08-25T03:46:08;16.48;;;9.65;;
20519;SDS011;53432;51.952;14.740;2022-08-25T03:48:43;16.15;;;9.35;;
20519;SDS011;53432;51.952;14.740;2022-08-25T03:51:10;15.82;;;10.30;;
20519;SDS011;53432;51.952;14.740;2022-08-25T03:53:38;17.67;;;10.52;;
20519;SDS011;53432;51.952;14.740;2022-08-25T03:56:05;12.90;;;9.25;;
20519;SDS011;53432;51.952;14.740;2022-08-25T03:58:32;13.95;;;9.50;;
20519;SDS011;53432;51.952;14.740;2022-08-25T04:01:00;19.80;;;10.30;;
20519;SDS011;53432;51.952;14.740;2022-08-25T04:03:27;13.27;;;9.75;;
20519;SDS011;53432;51.952;14.740;2022-08-25T04:05:59;15.13;;;9.88;;
20519;SDS011;53432;51.952;14.740;2022-08-25T04:08:26;16.58;;;9.60;;
20519;SDS011;53432;51.952;14.740;2022-08-25T04:10:53;12.90;;;9.18;;
20519;SDS011;53432;51.952;14.740;2022-08-25T04:13:21;19.30;;;10.57;;
20519;SDS011;53432;51.952;14.740;2022-08-25T04:15:48;18.75;;;9.25;;
20519;SDS011;53432;51.952;14.740;2022-08-25T04:18:16;14.90;;;10.07;;
20519;SDS011;53432;51.952;14.740;2022-08-25T04:20:43;18.15;;;10.15;;
20519;SDS011;53432;51.952;14.740;2022-08-25T04:23:13;16.70;;;9.70;;
20519;SDS011;53432;51.952;14.740;2022-08-25T04:25:40;18.30;;;9.40;;
20519;SDS011;53432;51.952;14.740;2022-08-25T04:28:08;16.98;;;9.13;;
20519;SDS011;53432;51.952;14.740;2022-08-25T04:30:35;13.57;;;9.55;;
20519;SDS011;53432;51.952;14.740;2022-08-25T04:33:06;13.70;;;9.27;;
20519;SDS011;53432;51.952;14.740;2022-08-25T04:35:34;14.13;;;9.07;;
20519;SDS011;53432;51.952;14.740;2022-08-25T04:38:01;11.30;;;8.70;;
20519;SDS011;53432;51.952;14.740;2022-08-25T04:40:30;15.15;;;9.80;;
20519;SDS011;53432;51.952;14.740;2022-08-25T04:42:58;12.52;;;9.32;;
20519;SDS011;53432;51.952;14.740;2022-08-25T04:45:25;12.10;;;9.25;;
20519;SDS011;53432;51.952;14.740;2022-08-25T04:47:52;14.57;;;9.10;;
20519;SDS011;53432;51.952;14.740;2022-08-25T04:50:22;14.52;;;9.93;;
20519;SDS011;53432;51.952;14.740;2022-08-25T04:52:50;11.25;;;8.85;;
20519;SDS011;53432;51.952;14.740;2022-08-25T04:55:17;12.25;;;9.73;;
20519;SDS011;53432;51.952;14.740;2022-08-25T04:57:46;12.65;;;9.32;;
20519;SDS011;53432;51.952;14.740;2022-08-25T05:00:14;16.10;;;9.55;;
20519;SDS011;53432;51.952;14.740;2022-08-25T05:02:42;12.82;;;9.10;;
20519;SDS011;53432;51.952;14.740;2022-08-25T05:05:09;12.05;;;8.90;;
20519;SDS011;53432;51.952;14.740;2022-08-25T05:07:37;12.25;;;9.85;;
20519;SDS011;53432;51.952;14.740;2022-08-25T05:10:05;10.57;;;9.30;;
20519;SDS011;53432;51.952;14.740;2022-08-25T05:12:33;11.85;;;9.38;;
20519;SDS011;53432;51.952;14.740;2022-08-25T05:15:02;14.20;;;10.20;;
20519;SDS011;53432;51.952;14.740;2022-08-25T05:17:50;13.43;;;9.00;;
20519;SDS011;53432;51.952;14.740;2022-08-25T05:20:17;12.23;;;9.15;;
20519;SDS011;53432;51.952;14.740;2022-08-25T05:22:45;12.82;;;9.60;;
20519;SDS011;53432;51.952;14.740;2022-08-25T05:25:12;13.73;;;9.77;;
20519;SDS011;53432;51.952;14.740;2022-08-25T05:27:40;12.02;;;9.85;;
20519;SDS011;53432;51.952;14.740;2022-08-25T05:30:10;12.10;;;9.18;;
20519;SDS011;53432;51.952;14.740;2022-08-25T05:32:37;17.58;;;10.05;;
20519;SDS011;53432;51.952;14.740;2022-08-25T05:35:05;14.02;;;9.20;;
20519;SDS011;53432;51.952;14.740;2022-08-25T05:37:33;15.35;;;10.55;;
20519;SDS011;53432;51.952;14.740;2022-08-25T05:40:02;14.05;;;9.93;;
20519;SDS011;53432;51.952;14.740;2022-08-25T05:42:30;11.23;;;8.93;;
20519;SDS011;53432;51.952;14.740;2022-08-25T05:44:57;12.68;;;9.35;;
20519;SDS011;53432;51.952;14.740;2022-08-25T05:47:26;11.60;;;9.10;;
20519;SDS011;53432;51.952;14.740;2022-08-25T05:49:53;15.27;;;9.43;;
20519;SDS011;53432;51.952;14.740;2022-08-25T05:52:21;13.27;;;10.38;;
20519;SDS011;53432;51.952;14.740;2022-08-25T05:54:48;14.85;;;10.10;;
20519;SDS011;53432;51.952;14.740;2022-08-25T05:57:16;17.48;;;9.80;;
20519;SDS011;53432;51.952;14.740;2022-08-25T05:59:43;13.95;;;9.95;;
20519;SDS011;53432;51.952;14.740;2022-08-25T06:02:10;15.25;;;10.43;;
20519;SDS011;53432;51.952;14.740;2022-08-25T06:04:56;16.92;;;9.40;;
20519;SDS011;53432;51.952;14.740;2022-08-25T06:07:24;13.65;;;10.35;;
20519;SDS011;53432;51.952;14.740;2022-08-25T06:09:51;16.85;;;10.43;;
20519;SDS011;53432;51.952;14.740;2022-08-25T06:12:18;14.07;;;10.50;;
20519;SDS011;53432;51.952;14.740;2022-08-25T06:14:46;18.33;;;10.60;;
20519;SDS011;53432;51.952;14.740;2022-08-25T06:17:14;14.90;;;11.45;;
20519;SDS011;53432;51.952;14.740;2022-08-25T06:19:41;15.52;;;10.57;;
20519;SDS011;53432;51.952;14.740;2022-08-25T06:22:10;18.70;;;11.20;;
20519;SDS011;53432;51.952;14.740;2022-08-25T06:24:38;18.27;;;11.32;;
20519;SDS011;53432;51.952;14.740;2022-08-25T06:27:05;16.35;;;10.90;;
20519;SDS011;53432;51.952;14.740;2022-08-25T06:29:32;16.42;;;11.18;;
20519;SDS011;53432;51.952;14.740;2022-08-25T06:32:00;19.83;;;12.40;;
20519;SDS011;53432;51.952;14.740;2022-08-25T06:34:27;18.27;;;11.60;;
20519;SDS011;53432;51.952;14.740;2022-08-25T06:36:54;24.23;;;13.48;;
20519;SDS011;53432;51.952;14.740;2022-08-25T06:39:23;16.45;;;11.45;;
20519;SDS011;53432;51.952;14.740;2022-08-25T06:41:51;18.45;;;11.93;;
20519;SDS011;53432;51.952;14.740;2022-08-25T06:44:19;20.15;;;12.35;;
20519;SDS011;53432;51.952;14.740;2022-08-25T06:46:47;18.48;;;12.80;;
20519;SDS011;53432;51.952;14.740;2022-08-25T06:49:15;21.60;;;12.30;;
20519;SDS011;53432;51.952;14.740;2022-08-25T06:51:42;24.40;;;12.85;;
20519;SDS011;53432;51.952;14.740;2022-08-25T06:54:10;19.30;;;13.00;;
20519;SDS011;53432;51.952;14.740;2022-08-25T06:56:39;22.75;;;13.15;;
20519;SDS011;53432;51.952;14.740;2022-08-25T06:59:08;17.00;;;11.55;;
20519;SDS011;53432;51.952;14.740;2022-08-25T07:01:35;16.92;;;12.70;;
20519;SDS011;53432;51.952;14.740;2022-08-25T07:04:03;15.80;;;11.32;;
20519;SDS011;53432;51.952;14.740;2022-08-25T07:06:32;16.20;;;12.07;;
20519;SDS011;53432;51.952;14.740;2022-08-25T07:09:01;17.58;;;12.73;;
20519;SDS011;53432;51.952;14.740;2022-08-25T07:11:30;19.80;;;12.05;;
20519;SDS011;53432;51.952;14.740;2022-08-25T07:14:00;20.15;;;11.52;;
20519;SDS011;53432;51.952;14.740;2022-08-25T07:16:28;17.00;;;12.05;;
20519;SDS011;53432;51.952;14.740;2022-08-25T07:18:56;18.45;;;12.38;;
20519;SDS011;53432;51.952;14.740;2022-08-25T07:21:24;18.52;;;13.25;;
20519;SDS011;53432;51.952;14.740;2022-08-25T07:23:52;16.25;;;12.18;;
20519;SDS011;53432;51.952;14.740;2022-08-25T07:26:24;20.63;;;12.65;;
20519;SDS011;53432;51.952;14.740;2022-08-25T07:28:53;17.42;;;13.57;;
20519;SDS011;53432;51.952;14.740;2022-08-25T07:31:23;18.40;;;12.50;;
20519;SDS011;53432;51.952;14.740;2022-08-25T07:33:50;17.85;;;12.75;;
20519;SDS011;53432;51.952;14.740;2022-08-25T07:36:35;16.75;;;12.05;;
20519;SDS011;53432;51.952;14.740;2022-08-25T07:39:03;18.75;;;12.65;;
20519;SDS011;53432;51.952;14.740;2022-08-25T07:41:30;19.90;;;13.95;;
20519;SDS011;53432;51.952;14.740;2022-08-25T07:44:01;19.98;;;14.10;;
20519;SDS011;53432;51.952;14.740;2022-08-25T07:46:30;21.58;;;13.82;;
20519;SDS011;53432;51.952;14.740;2022-08-25T07:48:58;23.48;;;13.55;;
20519;SDS011;53432;51.952;14.740;2022-08-25T07:51:26;21.92;;;13.63;;
20519;SDS011;53432;51.952;14.740;2022-08-25T07:53:53;19.05;;;13.63;;
20519;SDS011;53432;51.952;14.740;2022-08-25T07:56:21;20.80;;;14.57;;
20519;SDS011;53432;51.952;14.740;2022-08-25T07:58:49;20.88;;;12.70;;
20519;SDS011;53432;51.952;14.740;2022-08-25T08:01:18;19.98;;;12.68;;
20519;SDS011;53432;51.952;14.740;2022-08-25T08:03:49;17.77;;;11.90;;
20519;SDS011;53432;51.952;14.740;2022-08-25T08:06:18;22.40;;;13.65;;
20519;SDS011;53432;51.952;14.740;2022-08-25T08:08:47;24.25;;;13.85;;
20519;SDS011;53432;51.952;14.740;2022-08-25T08:11:15;22.38;;;13.90;;
20519;SDS011;53432;51.952;14.740;2022-08-25T08:13:43;16.33;;;12.90;;
20519;SDS011;53432;51.952;14.740;2022-08-25T08:16:11;18.25;;;12.65;;
20519;SDS011;53432;51.952;14.740;2022-08-25T08:18:41;17.23;;;12.30;;
20519;SDS011;53432;51.952;14.740;2022-08-25T08:21:12;22.27;;;11.63;;
20519;SDS011;53432;51.952;14.740;2022-08-25T08:23:41;19.23;;;12.27;;
20519;SDS011;53432;51.952;14.740;2022-08-25T08:26:08;20.45;;;13.02;;
20519;SDS011;53432;51.952;14.740;2022-08-25T08:28:36;16.75;;;12.38;;
20519;SDS011;53432;51.952;14.740;2022-08-25T08:31:04;20.40;;;11.55;;
20519;SDS011;53432;51.952;14.740;2022-08-25T08:33:32;15.43;;;12.32;;
20519;SDS011;53432;51.952;14.740;2022-08-25T08:36:00;17.35;;;12.77;;
20519;SDS011;53432;51.952;14.740;2022-08-25T08:38:32;25.42;;;12.55;;
20519;SDS011;53432;51.952;14.740;2022-08-25T08:41:04;23.20;;;12.95;;
20519;SDS011;53432;51.952;14.740;2022-08-25T08:43:58;18.58;;;12.77;;
20519;SDS011;53432;51.952;14.740;2022-08-25T08:46:32;18.33;;;12.15;;
20519;SDS011;53432;51.952;14.740;2022-08-25T08:49:10;19.88;;;12.07;;
20519;SDS011;53432;51.952;14.740;2022-08-25T08:51:49;17.65;;;11.63;;
20519;SDS011;53432;51.952;14.740;2022-08-25T08:54:22;22.17;;;12.90;;
20519;SDS011;53432;51.952;14.740;2022-08-25T08:56:53;18.52;;;12.23;;
20519;SDS011;53432;51.952;14.740;2022-08-25T08:59:28;20.25;;;13.05;;
20519;SDS011;53432;51.952;14.740;2022-08-25T09:02:07;18.38;;;12.27;;
20519;SDS011;53432;51.952;14.740;2022-08-25T09:04:40;16.60;;;11.13;;
20519;SDS011;53432;51.952;14.740;2022-08-25T09:07:13;22.55;;;12.98;;
20519;SDS011;53432;51.952;14.740;2022-08-25T09:09:46;16.92;;;11.45;;
20519;SDS011;53432;51.952;14.740;2022-08-25T09:12:18;17.67;;;10.70;;
20519;SDS011;53432;51.952;14.740;2022-08-25T09:14:54;20.45;;;11.38;;
20519;SDS011;53432;51.952;14.740;2022-08-25T09:17:36;18.65;;;10.35;;
20519;SDS011;53432;51.952;14.740;2022-08-25T09:20:16;18.42;;;10.13;;
20519;SDS011;53432;51.952;14.740;2022-08-25T09:23:07;22.98;;;11.38;;
20519;SDS011;53432;51.952;14.740;2022-08-25T09:25:51;14.65;;;9.93;;
20519;SDS011;53432;51.952;14.740;2022-08-25T09:28:27;16.92;;;10.82;;
20519;SDS011;53432;51.952;14.740;2022-08-25T09:30:58;28.27;;;15.00;;
20519;SDS011;53432;51.952;14.740;2022-08-25T09:33:28;20.20;;;11.30;;
20519;SDS011;53432;51.952;14.740;2022-08-25T09:35:57;19.73;;;10.43;;
20519;SDS011;53432;51.952;14.740;2022-08-25T09:38:26;14.23;;;10.50;;
20519;SDS011;53432;51.952;14.740;2022-08-25T09:40:58;16.98;;;10.38;;
20519;SDS011;53432;51.952;14.740;2022-08-25T09:43:31;14.18;;;8.60;;
20519;SDS011;53432;51.952;14.740;2022-08-25T09:46:01;19.95;;;9.40;;
20519;SDS011;53432;51.952;14.740;2022-08-25T09:48:41;13.27;;;8.05;;
20519;SDS011;53432;51.952;14.740;2022-08-25T09:51:13;17.83;;;7.63;;
20519;SDS011;53432;51.952;14.740;2022-08-25T09:53:46;16.90;;;8.05;;
20519;SDS011;53432;51.952;14.740;2022-08-25T09:56:19;15.30;;;8.15;;
20519;SDS011;53432;51.952;14.740;2022-08-25T09:58:48;16.08;;;8.93;;
20519;SDS011;53432;51.952;14.740;2022-08-25T10:01:16;13.85;;;8.07;;
20519;SDS011;53432;51.952;14.740;2022-08-25T10:03:58;15.68;;;8.48;;
20519;SDS011;53432;51.952;14.740;2022-08-25T10:06:32;11.80;;;7.57;;
20519;SDS011;53432;51.952;14.740;2022-08-25T10:09:03;11.80;;;8.68;;
20519;SDS011;53432;51.952;14.740;2022-08-25T10:11:43;15.40;;;8.23;;
20519;SDS011;53432;51.952;14.740;2022-08-25T10:14:17;12.98;;;7.43;;
20519;SDS011;53432;51.952;14.740;2022-08-25T10:16:47;11.20;;;7.75;;
20519;SDS011;53432;51.952;14.740;2022-08-25T10:19:22;13.45;;;8.05;;
20519;SDS011;53432;51.952;14.740;2022-08-25T10:22:02;10.50;;;7.45;;
20519;SDS011;53432;51.952;14.740;2022-08-25T10:24:32;11.98;;;6.93;;
20519;SDS011;53432;51.952;14.740;2022-08-25T10:27:03;12.48;;;8.40;;
20519;SDS011;53432;51.952;14.740;2022-08-25T10:29:47;13.20;;;8.57;;
20519;SDS011;53432;51.952;14.740;2022-08-25T10:32:29;14.32;;;9.68;;
20519;SDS011;53432;51.952;14.740;2022-08-25T10:35:12;14.40;;;8.73;;
20519;SDS011;53432;51.952;14.740;2022-08-25T10:37:44;15.52;;;8.85;;
20519;SDS011;53432;51.952;14.740;2022-08-25T10:40:23;12.63;;;8.60;;
20519;SDS011;53432;51.952;14.740;2022-08-25T10:42:59;11.80;;;7.85;;
20519;SDS011;53432;51.952;14.740;2022-08-25T10:45:33;14.85;;;8.32;;
20519;SDS011;53432;51.952;14.740;2022-08-25T10:51:28;15.55;;;8.55;;
20519;SDS011;53432;51.952;14.740;2022-08-25T10:54:06;12.70;;;8.52;;
20519;SDS011;53432;51.952;14.740;2022-08-25T10:56:45;16.73;;;9.30;;
20519;SDS011;53432;51.952;14.740;2022-08-25T10:59:24;18.00;;;9.32;;
20519;SDS011;53432;51.952;14.740;2022-08-25T11:02:24;16.35;;;8.95;;
20519;SDS011;53432;51.952;14.740;2022-08-25T11:05:10;16.92;;;10.32;;
20519;SDS011;53432;51.952;14.740;2022-08-25T11:07:43;13.48;;;9.98;;
20519;SDS011;53432;51.952;14.740;2022-08-25T11:10:14;16.38;;;9.32;;
20519;SDS011;53432;51.952;14.740;2022-08-25T11:12:46;23.90;;;10.05;;
20519;SDS011;53432;51.952;14.740;2022-08-25T11:15:21;10.25;;;8.82;;
20519;SDS011;53432;51.952;14.740;2022-08-25T11:17:54;10.82;;;8.05;;
20519;SDS011;53432;51.952;14.740;2022-08-25T11:20:26;13.32;;;9.30;;
20519;SDS011;53432;51.952;14.740;2022-08-25T11:23:03;12.82;;;8.57;;
20519;SDS011;53432;51.952;14.740;2022-08-25T11:25:36;14.80;;;9.85;;
20519;SDS011;53432;51.952;14.740;2022-08-25T11:28:08;16.13;;;10.15;;
20519;SDS011;53432;51.952;14.740;2022-08-25T11:30:41;15.50;;;9.27;;
20519;SDS011;53432;51.952;14.740;2022-08-25T11:33:10;13.48;;;9.63;;
20519;SDS011;53432;51.952;14.740;2022-08-25T11:35:40;17.38;;;10.27;;
20519;SDS011;53432;51.952;14.740;2022-08-25T11:38:13;11.10;;;8.40;;
20519;SDS011;53432;51.952;14.740;2022-08-25T11:40:53;13.25;;;10.00;;
20519;SDS011;53432;51.952;14.740;2022-08-25T11:43:33;13.50;;;11.02;;
20519;SDS011;53432;51.952;14.740;2022-08-25T11:46:19;15.82;;;10.07;;
20519;SDS011;53432;51.952;14.740;2022-08-25T11:48:59;17.58;;;10.75;;
20519;SDS011;53432;51.952;14.740;2022-08-25T11:51:39;19.38;;;10.25;;
20519;SDS011;53432;51.952;14.740;2022-08-25T11:54:14;12.00;;;8.55;;
20519;SDS011;53432;51.952;14.740;2022-08-25T11:56:49;11.75;;;8.05;;
20519;SDS011;53432;51.952;14.740;2022-08-25T12:02:29;14.60;;;8.52;;
20519;SDS011;53432;51.952;14.740;2022-08-25T12:04:59;13.57;;;9.23;;
20519;SDS011;53432;51.952;14.740;2022-08-25T12:07:28;13.45;;;7.63;;
20519;SDS011;53432;51.952;14.740;2022-08-25T12:10:51;18.63;;;8.43;;
20519;SDS011;53432;51.952;14.740;2022-08-25T12:19:23;12.50;;;7.68;;
20519;SDS011;53432;51.952;14.740;2022-08-25T12:21:54;10.55;;;7.75;;
20519;SDS011;53432;51.952;14.740;2022-08-25T12:24:24;14.68;;;8.75;;
20519;SDS011;53432;51.952;14.740;2022-08-25T12:27:18;10.55;;;8.07;;
20519;SDS011;53432;51.952;14.740;2022-08-25T12:29:51;11.15;;;7.45;;
20519;SDS011;53432;51.952;14.740;2022-08-25T12:32:34;13.85;;;8.15;;
20519;SDS011;53432;51.952;14.740;2022-08-25T12:35:26;17.60;;;8.30;;
20519;SDS011;53432;51.952;14.740;2022-08-25T12:37:57;9.98;;;6.65;;
20519;SDS011;53432;51.952;14.740;2022-08-25T12:40:31;15.55;;;7.78;;
20519;SDS011;53432;51.952;14.740;2022-08-25T12:43:03;11.30;;;6.70;;
20519;SDS011;53432;51.952;14.740;2022-08-25T12:45:37;16.92;;;7.55;;
20519;SDS011;53432;51.952;14.740;2022-08-25T12:51:25;9.55;;;6.45;;
20519;SDS011;53432;51.952;14.740;2022-08-25T12:53:56;11.88;;;6.88;;
20519;SDS011;53432;51.952;14.740;2022-08-25T12:56:39;6.68;;;5.97;;
20519;SDS011;53432;51.952;14.740;2022-08-25T12:59:11;12.43;;;6.63;;
20519;SDS011;53432;51.952;14.740;2022-08-25T13:01:48;12.13;;;6.35;;
20519;SDS011;53432;51.952;14.740;2022-08-25T13:04:31;9.98;;;6.35;;
20519;SDS011;53432;51.952;14.740;2022-08-25T13:07:18;7.72;;;5.88;;
20519;SDS011;53432;51.952;14.740;2022-08-25T13:10:02;11.32;;;6.10;;
20519;SDS011;53432;51.952;14.740;2022-08-25T13:12:41;16.20;;;7.22;;
20519;SDS011;53432;51.952;14.740;2022-08-25T13:15:23;14.25;;;5.57;;
20519;SDS011;53432;51.952;14.740;2022-08-25T13:17:54;10.10;;;5.95;;
20519;SDS011;53432;51.952;14.740;2022-08-25T13:20:37;18.60;;;6.13;;
20519;SDS011;53432;51.952;14.740;2022-08-25T13:23:06;14.43;;;5.95;;
20519;SDS011;53432;51.952;14.740;2022-08-25T13:25:34;12.18;;;6.13;;
20519;SDS011;53432;51.952;14.740;2022-08-25T13:28:17;9.15;;;5.85;;
20519;SDS011;53432;51.952;14.740;2022-08-25T13:30:54;15.15;;;7.30;;
20519;SDS011;53432;51.952;14.740;2022-08-25T13:33:26;9.32;;;5.97;;
20519;SDS011;53432;51.952;14.740;2022-08-25T13:35:55;8.85;;;5.82;;
20519;SDS011;53432;51.952;14.740;2022-08-25T13:38:43;10.07;;;5.10;;
20519;SDS011;53432;51.952;14.740;2022-08-25T13:41:16;10.68;;;6.38;;
20519;SDS011;53432;51.952;14.740;2022-08-25T13:43:45;14.18;;;5.75;;
20519;SDS011;53432;51.952;14.740;2022-08-25T13:46:16;12.52;;;5.85;;
20519;SDS011;53432;51.952;14.740;2022-08-25T13:48:45;10.15;;;5.22;;
20519;SDS011;53432;51.952;14.740;2022-08-25T13:51:22;10.60;;;5.03;;
20519;SDS011;53432;51.952;14.740;2022-08-25T13:53:54;13.48;;;5.57;;
20519;SDS011;53432;51.952;14.740;2022-08-25T13:56:24;10.02;;;4.68;;
20519;SDS011;53432;51.952;14.740;2022-08-25T13:58:54;7.35;;;5.07;;
20519;SDS011;53432;51.952;14.740;2022-08-25T14:01:23;12.73;;;5.43;;
20519;SDS011;53432;51.952;14.740;2022-08-25T14:03:53;13.70;;;5.22;;
20519;SDS011;53432;51.952;14.740;2022-08-25T14:06:22;10.32;;;5.68;;
20519;SDS011;53432;51.952;14.740;2022-08-25T14:09:06;13.43;;;4.95;;
20519;SDS011;53432;51.952;14.740;2022-08-25T14:11:41;10.10;;;5.15;;
20519;SDS011;53432;51.952;14.740;2022-08-25T14:14:12;10.05;;;4.97;;
20519;SDS011;53432;51.952;14.740;2022-08-25T14:16:57;12.35;;;4.75;;
20519;SDS011;53432;51.952;14.740;2022-08-25T14:19:27;13.30;;;5.15;;
20519;SDS011;53432;51.952;14.740;2022-08-25T14:21:55;15.00;;;5.38;;
20519;SDS011;53432;51.952;14.740;2022-08-25T14:24:30;6.97;;;4.25;;
20519;SDS011;53432;51.952;14.740;2022-08-25T14:27:00;8.65;;;4.28;;
20519;SDS011;53432;51.952;14.740;2022-08-25T14:29:28;8.38;;;4.53;;
20519;SDS011;53432;51.952;14.740;2022-08-25T14:31:56;8.52;;;5.20;;
20519;SDS011;53432;51.952;14.740;2022-08-25T14:34:25;8.70;;;4.47;;
20519;SDS011;53432;51.952;14.740;2022-08-25T14:36:54;11.57;;;5.05;;
20519;SDS011;53432;51.952;14.740;2022-08-25T14:39:24;13.00;;;4.65;;
20519;SDS011;53432;51.952;14.740;2022-08-25T14:41:53;9.20;;;4.68;;
20519;SDS011;53432;51.952;14.740;2022-08-25T14:44:21;12.07;;;4.90;;
20519;SDS011;53432;51.952;14.740;2022-08-25T14:46:49;9.05;;;5.07;;
20519;SDS011;53432;51.952;14.740;2022-08-25T14:49:19;12.05;;;4.53;;
20519;SDS011;53432;51.952;14.740;2022-08-25T14:51:49;9.70;;;5.35;;
20519;SDS011;53432;51.952;14.740;2022-08-25T14:54:25;11.10;;;4.82;;
20519;SDS011;53432;51.952;14.740;2022-08-25T14:56:54;10.98;;;5.05;;
20519;SDS011;53432;51.952;14.740;2022-08-25T14:59:22;10.82;;;5.35;;